Hlavní strana
METAR-TAF:

METAR-TAF

Letiště :

Roskilde, Dánsko

zeměpisná šířka: 55-35N, zeměpisná délka: 012-08E, výška: 44 m

Aktuální stav počasí

Zpráva byla vytvořena před 43 minutami, v 21:20 UTC
Jihojihovýchodní vítr 9 kt
Teplota 6°C
Vlhkost vzduchu 87%
Tlak 1002 hPa
Viditelnost 10 km a více

METAR: EKRK 122120Z AUTO 16009KT 9999 BKN058/// 06/04 Q1002

Čas: 23:03 (22:03 UTC)

Předpověď počasí

Zpráva byla vytvořena před 1 hodinou a 42 minutami, v 20:21 UTC
Předpověď platná od 12 v 21 UTC do 13 v 06 UTC
Jihojihovýchodní vítr 8 kt
Viditelnost 10 km a více
Polojasno ve výšce 2500 ft
Pravděpodobnost 40%
od 13 v 01 UTC do 13 v 06 UTC
Viditelnost: 3000 m
kouřmo

TAF: EKRK 122021Z 1221/1306 16008KT 9999 SCT025 PROB40 1301/1306 3000 BR

Stav a předpovědi počasí z více než 4 000 letišť (zprávy METAR a TAF).

Červené a žluté tečky na mapě představují dostupné meteorologické stanice.

Když kurzor umístíte na tečku, zobrazí se název stanice.

Pak kliknutím zobrazíte stav a předpověď počasí.

Chcete-li změnit mapu, kliknutím na zelené tlačítko se znaménkem +mapu přiblížíte, kliknutím na zelené tlačítko se znaménkem – mapu oddálíte a kliknutím na zelené šipky přejdete na sousední mapy.


METAR-TAF: